Time;durP1;ratioP1;P1;durP2;ratioP2;P2;SDS_P1;SDS_P2;PMS_P1;PMS_P2;Temp;Humidity;BMP_temperature;BMP_pressure;BME280_temperature;BME280_humidity;BME280_pressure;Samples;Min_cycle;Max_cycle;Signal;HPM_P1;HPM_P2
2022/03/07 00:02:04;;;;;;;9.80;5.63;;;-0.50;99.90;;;;;;4808434;29;20137;-84
2022/03/07 00:04:29;;;;;;;10.25;5.90;;;-0.40;99.90;;;;;;4823643;29;20050;-84
2022/03/07 00:06:55;;;;;;;8.55;5.97;;;-0.50;99.90;;;;;;4825855;29;20057;-84
2022/03/07 00:09:21;;;;;;;8.63;6.20;;;-0.40;99.90;;;;;;4824228;29;20054;-84
2022/03/07 00:11:47;;;;;;;10.27;6.53;;;-0.30;99.90;;;;;;4793927;29;20059;-84
2022/03/07 00:14:13;;;;;;;12.40;6.18;;;0.70;99.90;;;;;;4839362;29;20502;-84
2022/03/07 00:16:39;;;;;;;8.63;5.65;;;1.00;99.90;;;;;;4824195;29;20058;-84
2022/03/07 00:19:05;;;;;;;8.63;5.68;;;0.70;99.90;;;;;;4824433;29;20661;-84
2022/03/07 00:21:31;;;;;;;9.55;6.03;;;-0.20;99.90;;;;;;4809178;29;20106;-84
2022/03/07 00:23:58;;;;;;;11.25;6.28;;;0.80;99.90;;;;;;4823659;29;20053;-84
2022/03/07 00:26:23;;;;;;;9.43;6.35;;;-0.20;99.90;;;;;;4823905;29;20054;-84
2022/03/07 00:28:49;;;;;;;9.13;5.95;;;-0.10;99.90;;;;;;4806031;29;20054;-84
2022/03/07 00:31:15;;;;;;;11.93;6.13;;;0.70;99.90;;;;;;4808721;29;20058;-84
2022/03/07 00:33:42;;;;;;;10.52;6.32;;;0.00;99.90;;;;;;4824032;29;20058;-84
2022/03/07 00:36:07;;;;;;;9.75;5.97;;;0.00;99.90;;;;;;4801393;29;20057;-84
2022/03/07 00:38:34;;;;;;;10.32;6.28;;;0.60;99.90;;;;;;4823897;29;20062;-84
2022/03/07 00:41:00;;;;;;;9.02;6.60;;;0.00;99.90;;;;;;4808487;29;20108;-84
2022/03/07 00:43:26;;;;;;;10.32;6.53;;;0.00;99.90;;;;;;4810857;29;20138;-83
2022/03/07 00:45:52;;;;;;;11.45;6.30;;;0.40;99.90;;;;;;4820949;29;20059;-83
2022/03/07 00:48:19;;;;;;;8.90;5.85;;;-0.10;99.90;;;;;;4808426;29;20069;-84
2022/03/07 00:50:50;;;;;;;10.15;5.78;;;-0.20;99.90;;;;;;4839254;29;20061;-83
2022/03/07 00:53:24;;;;;;;9.60;6.13;;;-0.40;99.90;;;;;;4823947;29;20058;-84
2022/03/07 00:55:51;;;;;;;8.30;5.47;;;-0.50;99.90;;;;;;4816964;29;20058;-83
2022/03/07 00:58:16;;;;;;;7.82;5.70;;;0.20;99.90;;;;;;4814146;29;20094;-83
2022/03/07 01:00:43;;;;;;;11.80;6.10;;;-0.20;99.90;;;;;;4823692;29;20077;-83
2022/03/07 01:03:10;;;;;;;8.75;5.80;;;-0.80;99.90;;;;;;4823030;29;20601;-84
2022/03/07 01:05:37;;;;;;;8.77;5.80;;;-0.70;99.90;;;;;;4823547;29;20051;-84
2022/03/07 01:08:03;;;;;;;9.13;6.28;;;-0.10;99.90;;;;;;4844224;29;20046;-84
2022/03/07 01:10:29;;;;;;;8.45;6.13;;;-0.90;99.90;;;;;;4823694;29;20393;-84
2022/03/07 01:12:55;;;;;;;12.73;7.03;;;-0.90;99.90;;;;;;4823209;29;20061;-83
2022/03/07 01:15:20;;;;;;;11.57;6.30;;;-0.90;99.90;;;;;;4835754;29;20063;-84
2022/03/07 01:17:46;;;;;;;10.40;6.72;;;-0.90;99.90;;;;;;4823227;29;20488;-84
2022/03/07 01:20:12;;;;;;;9.95;6.18;;;-0.80;99.90;;;;;;4822923;29;20054;-84
2022/03/07 01:22:38;;;;;;;15.35;7.35;;;-0.10;99.90;;;;;;4823378;29;20066;-84
2022/03/07 01:25:05;;;;;;;10.60;6.70;;;0.50;99.90;;;;;;4807635;29;20198;-84
2022/03/07 01:27:32;;;;;;;12.70;7.82;;;-0.70;99.90;;;;;;4822984;29;20085;-84
2022/03/07 01:29:58;;;;;;;11.30;6.53;;;-0.60;99.90;;;;;;4822759;29;20046;-85
2022/03/07 01:32:24;;;;;;;9.50;5.38;;;-0.60;99.90;;;;;;4838559;29;20058;-84
2022/03/07 01:34:50;;;;;;;11.23;6.22;;;-0.60;99.90;;;;;;4816598;29;20519;-84
2022/03/07 01:37:16;;;;;;;13.07;6.55;;;-0.60;99.90;;;;;;4835142;29;20050;-84
2022/03/07 01:39:42;;;;;;;10.23;6.00;;;0.50;99.90;;;;;;4838307;29;20203;-84
2022/03/07 01:42:08;;;;;;;11.00;6.75;;;0.40;99.90;;;;;;4822926;29;20058;-84
2022/03/07 01:44:34;;;;;;;12.48;6.40;;;0.50;99.90;;;;;;4823152;29;20066;-84
2022/03/07 01:47:00;;;;;;;12.63;6.50;;;0.10;99.90;;;;;;4822326;29;20520;-84
2022/03/07 01:49:26;;;;;;;10.13;6.80;;;-0.40;99.90;;;;;;4822808;29;20054;-84
2022/03/07 01:51:53;;;;;;;11.15;7.07;;;-0.60;99.90;;;;;;4823381;29;20038;-84
2022/03/07 01:54:22;;;;;;;11.23;7.47;;;0.30;99.90;;;;;;4821817;29;20500;-84
2022/03/07 01:56:49;;;;;;;11.25;6.55;;;-0.60;99.90;;;;;;4822161;29;20058;-84
2022/03/07 01:59:22;;;;;;;10.63;5.93;;;0.10;99.90;;;;;;4822731;29;20085;-84
2022/03/07 02:01:48;;;;;;;9.25;6.28;;;0.40;99.90;;;;;;4807753;29;20054;-84
2022/03/07 02:04:14;;;;;;;12.52;6.70;;;-0.80;99.90;;;;;;4804299;29;20058;-84
2022/03/07 02:06:40;;;;;;;8.73;6.75;;;-0.80;99.90;;;;;;4808835;29;20484;-84
2022/03/07 02:09:07;;;;;;;12.65;6.85;;;-0.80;99.90;;;;;;4825650;29;20097;-84
2022/03/07 02:11:35;;;;;;;12.88;6.85;;;-0.80;99.90;;;;;;4818395;29;20085;-84
2022/03/07 02:14:12;;;;;;;11.48;7.05;;;-0.70;99.90;;;;;;4821071;29;20042;-84
2022/03/07 02:16:38;;;;;;;13.18;8.07;;;0.30;99.90;;;;;;4807500;29;20055;-84
2022/03/07 02:19:04;;;;;;;13.05;7.25;;;-0.10;99.90;;;;;;4837334;29;20089;-84
2022/03/07 02:21:32;;;;;;;11.10;7.28;;;-0.70;99.90;;;;;;4822672;29;20057;-84
2022/03/07 02:23:58;;;;;;;11.15;6.95;;;-0.10;99.90;;;;;;4822015;29;20141;-84
2022/03/07 02:26:23;;;;;;;13.07;7.13;;;-0.70;99.90;;;;;;4837452;29;20132;-84
2022/03/07 02:28:49;;;;;;;12.02;7.35;;;-0.60;99.90;;;;;;4834004;29;20054;-84
2022/03/07 02:31:20;;;;;;;11.55;6.78;;;-0.60;99.90;;;;;;4822346;29;20046;-84
2022/03/07 02:33:47;;;;;;;14.02;8.00;;;-0.20;99.90;;;;;;4821952;29;20064;-84
2022/03/07 02:36:13;;;;;;;13.13;7.70;;;-0.70;99.90;;;;;;4804198;29;20525;-84
2022/03/07 02:38:39;;;;;;;11.95;6.70;;;0.60;99.90;;;;;;4819437;29;20065;-85
2022/03/07 02:41:05;;;;;;;13.00;6.93;;;-0.70;99.90;;;;;;4822189;29;20058;-84
2022/03/07 02:43:31;;;;;;;12.40;7.10;;;-0.90;99.90;;;;;;4819324;29;20050;-84
2022/03/07 02:45:58;;;;;;;10.50;7.43;;;-0.10;99.90;;;;;;4819203;29;20061;-85
2022/03/07 02:48:27;;;;;;;15.07;7.90;;;0.10;99.90;;;;;;4819675;29;20099;-84
2022/03/07 02:50:53;;;;;;;10.35;7.15;;;-0.10;99.90;;;;;;4810766;29;20077;-84
2022/03/07 02:53:19;;;;;;;11.35;7.43;;;-0.80;99.90;;;;;;4822172;29;20050;-85
2022/03/07 02:55:44;;;;;;;9.10;6.68;;;-0.90;99.90;;;;;;4806095;29;20070;-84
2022/03/07 02:58:10;;;;;;;11.15;7.18;;;-0.10;99.90;;;;;;4821630;29;20069;-85
2022/03/07 03:00:37;;;;;;;11.85;6.78;;;0.00;99.90;;;;;;4822197;29;20054;-84
2022/03/07 03:03:03;;;;;;;9.68;6.20;;;-0.50;99.90;;;;;;4822101;29;20046;-84
2022/03/07 03:05:29;;;;;;;10.52;6.85;;;-0.60;99.90;;;;;;4806912;29;20507;-84
2022/03/07 03:07:55;;;;;;;12.45;7.38;;;-0.30;99.90;;;;;;4821176;29;20054;-84
2022/03/07 03:10:21;;;;;;;11.85;7.55;;;-0.50;99.90;;;;;;4821492;29;20050;-84
2022/03/07 03:12:47;;;;;;;13.77;6.70;;;-1.50;99.90;;;;;;4821510;29;20054;-84
2022/03/07 03:15:13;;;;;;;11.18;6.63;;;-1.60;99.90;;;;;;4821859;29;20062;-84
2022/03/07 03:17:44;;;;;;;10.23;6.97;;;-1.70;99.90;;;;;;4821287;29;20559;-84
2022/03/07 03:20:11;;;;;;;11.65;6.97;;;-1.70;99.90;;;;;;4821624;29;20495;-84
2022/03/07 03:22:42;;;;;;;12.05;7.10;;;-1.80;99.90;;;;;;4821609;29;20488;-85
2022/03/07 03:25:10;;;;;;;10.90;6.32;;;-1.00;99.90;;;;;;4805559;29;20086;-84
2022/03/07 03:27:36;;;;;;;10.20;6.80;;;-1.70;99.90;;;;;;4825133;29;20054;-85
2022/03/07 03:30:08;;;;;;;10.55;6.90;;;-1.70;99.90;;;;;;4825348;29;20046;-84
2022/03/07 03:32:34;;;;;;;11.20;6.55;;;-1.60;99.90;;;;;;4810378;29;20073;-84
2022/03/07 03:34:59;;;;;;;10.43;7.00;;;-0.70;99.90;;;;;;4810083;29;20058;-85
2022/03/07 03:37:25;;;;;;;10.68;6.78;;;-1.00;99.90;;;;;;4825303;29;20065;-85
2022/03/07 03:39:52;;;;;;;11.30;6.88;;;-0.70;99.90;;;;;;4825180;29;20399;-85
2022/03/07 03:42:18;;;;;;;14.07;6.75;;;-1.50;99.90;;;;;;4825047;29;20054;-85
2022/03/07 03:44:43;;;;;;;11.15;7.97;;;-1.40;99.90;;;;;;4824877;29;20535;-84
2022/03/07 03:47:09;;;;;;;11.05;7.05;;;-1.10;99.90;;;;;;4824555;29;20053;-84
2022/03/07 03:49:35;;;;;;;11.48;7.15;;;-0.50;99.90;;;;;;4824394;29;20153;-85
2022/03/07 03:52:02;;;;;;;11.23;7.22;;;-1.40;99.90;;;;;;4809910;29;20854;-85
2022/03/07 03:54:28;;;;;;;12.73;7.70;;;-1.40;99.90;;;;;;4791306;29;20112;-84
2022/03/07 03:56:54;;;;;;;13.45;7.57;;;-1.50;99.90;;;;;;4836034;29;20162;-84
2022/03/07 03:59:19;;;;;;;11.82;7.10;;;-1.50;99.90;;;;;;4818648;29;20491;-85
2022/03/07 04:01:45;;;;;;;10.77;7.60;;;-0.50;99.90;;;;;;4810389;29;20054;-85
2022/03/07 04:04:12;;;;;;;14.85;8.70;;;-1.40;99.90;;;;;;4806831;29;20493;-84
2022/03/07 04:06:41;;;;;;;12.23;8.35;;;-0.80;99.90;;;;;;4821357;29;20115;-84
2022/03/07 04:09:19;;;;;;;12.35;8.27;;;-1.30;99.90;;;;;;4813098;29;20183;-85
2022/03/07 04:11:45;;;;;;;15.07;7.80;;;-1.00;99.90;;;;;;4821688;29;20412;-84
2022/03/07 04:14:11;;;;;;;14.45;7.63;;;-0.60;99.90;;;;;;4821282;29;20051;-84
2022/03/07 04:16:38;;;;;;;13.05;8.15;;;-1.10;99.90;;;;;;4824220;29;20087;-84
2022/03/07 04:19:08;;;;;;;13.18;8.05;;;-0.50;99.90;;;;;;4824161;29;20079;-85
2022/03/07 04:21:35;;;;;;;12.88;7.38;;;-1.10;99.90;;;;;;4809123;29;20062;-85
2022/03/07 04:24:01;;;;;;;11.13;7.18;;;-1.10;99.90;;;;;;4823641;29;20107;-84
2022/03/07 04:26:28;;;;;;;10.32;6.70;;;-1.10;99.90;;;;;;4823911;29;20046;-85
2022/03/07 04:28:54;;;;;;;11.32;7.00;;;-1.10;99.90;;;;;;4823721;29;20046;-85
2022/03/07 04:31:21;;;;;;;15.68;8.05;;;-1.20;99.90;;;;;;4803892;29;20089;-85
2022/03/07 04:33:46;;;;;;;14.10;7.65;;;-0.30;99.90;;;;;;4821715;29;20583;-85
2022/03/07 04:36:14;;;;;;;14.35;7.90;;;-1.20;99.90;;;;;;4812282;29;20141;-85
2022/03/07 04:38:40;;;;;;;11.65;8.05;;;-0.70;99.90;;;;;;4815322;29;20408;-85
2022/03/07 04:41:06;;;;;;;12.98;7.93;;;-1.10;99.90;;;;;;4808008;29;20141;-85
2022/03/07 04:43:32;;;;;;;12.65;7.63;;;-1.10;99.90;;;;;;4800162;29;20054;-85
2022/03/07 04:45:58;;;;;;;13.07;8.23;;;-0.30;99.90;;;;;;4808941;29;20058;-85
2022/03/07 04:48:25;;;;;;;12.20;7.43;;;-0.10;99.90;;;;;;4808677;29;20067;-85
2022/03/07 04:50:51;;;;;;;15.68;10.35;;;-0.20;99.90;;;;;;4824135;29;20056;-85
2022/03/07 04:53:17;;;;;;;12.95;8.18;;;-0.90;99.90;;;;;;4808636;29;20054;-85
2022/03/07 04:55:43;;;;;;;12.63;7.90;;;0.30;99.90;;;;;;4822843;29;20062;-85
2022/03/07 04:58:09;;;;;;;12.30;7.65;;;-0.60;99.90;;;;;;4823491;29;20405;-85
2022/03/07 05:00:35;;;;;;;12.52;8.00;;;0.20;99.90;;;;;;4836009;29;20105;-85
2022/03/07 05:03:00;;;;;;;11.60;7.35;;;0.10;99.90;;;;;;4805611;29;20051;-85
2022/03/07 05:05:26;;;;;;;15.30;8.45;;;-0.90;99.90;;;;;;4823012;29;20047;-85
2022/03/07 05:07:53;;;;;;;13.43;8.45;;;-1.00;99.90;;;;;;4810165;29;20129;-85
2022/03/07 05:10:19;;;;;;;13.27;9.18;;;-0.40;99.90;;;;;;4823778;29;20458;-85
2022/03/07 05:12:46;;;;;;;11.20;7.60;;;-1.00;99.90;;;;;;4823341;29;20057;-85
2022/03/07 05:15:12;;;;;;;13.05;8.13;;;-1.00;99.90;;;;;;4808493;29;20065;-85
2022/03/07 05:17:48;;;;;;;14.02;8.27;;;-0.80;99.90;;;;;;4823275;29;20133;-85
2022/03/07 05:20:16;;;;;;;16.70;8.13;;;-0.90;99.90;;;;;;4823329;29;20054;-85
2022/03/07 05:22:43;;;;;;;15.27;9.05;;;-0.90;99.90;;;;;;4808392;29;20077;-85
2022/03/07 05:25:10;;;;;;;21.00;9.82;;;0.30;99.90;;;;;;4822924;29;20133;-85
2022/03/07 05:27:36;;;;;;;11.90;7.68;;;-0.60;99.90;;;;;;4823375;29;20089;-85
2022/03/07 05:30:02;;;;;;;12.40;7.43;;;-0.10;99.90;;;;;;4823222;29;20054;-85
2022/03/07 05:32:28;;;;;;;12.82;7.28;;;-0.80;99.90;;;;;;4822948;29;20050;-85
2022/03/07 05:34:54;;;;;;;12.88;8.57;;;-0.70;99.90;;;;;;4823088;29;20050;-85
2022/03/07 05:37:20;;;;;;;13.05;7.38;;;-0.70;99.90;;;;;;4834964;29;20404;-86
2022/03/07 05:39:45;;;;;;;16.80;8.77;;;-0.70;99.90;;;;;;4823194;29;20699;-85
2022/03/07 05:42:11;;;;;;;14.02;9.45;;;-0.70;99.90;;;;;;4807218;29;20054;-85
2022/03/07 05:44:37;;;;;;;14.27;8.88;;;0.30;99.90;;;;;;4822720;29;20046;-85
2022/03/07 05:47:03;;;;;;;15.07;9.05;;;-0.70;99.90;;;;;;4822979;29;20073;-85
2022/03/07 05:49:29;;;;;;;12.63;8.57;;;-0.70;99.90;;;;;;4838154;29;20078;-85
2022/03/07 05:51:55;;;;;;;12.32;8.27;;;-0.70;99.90;;;;;;4808184;29;20137;-85
2022/03/07 05:54:21;;;;;;;15.95;9.05;;;-0.70;99.90;;;;;;4822112;29;20073;-85
2022/03/07 05:56:46;;;;;;;13.82;8.70;;;0.10;99.90;;;;;;4819476;29;20047;-85
2022/03/07 05:59:12;;;;;;;14.85;8.77;;;-0.60;99.90;;;;;;4815679;29;20050;-85
2022/03/07 06:01:38;;;;;;;16.15;8.43;;;-0.60;99.90;;;;;;4823566;29;20057;-84
2022/03/07 06:04:04;;;;;;;13.68;8.00;;;-0.70;99.90;;;;;;4822980;29;20069;-85
2022/03/07 06:06:30;;;;;;;13.48;8.02;;;-0.80;99.90;;;;;;4797871;29;20042;-85
2022/03/07 06:08:56;;;;;;;14.43;9.23;;;-0.70;99.90;;;;;;4839663;29;20050;-85
2022/03/07 06:11:22;;;;;;;14.38;9.55;;;-0.70;99.90;;;;;;4807444;29;20089;-85
2022/03/07 06:13:47;;;;;;;16.73;9.30;;;-0.40;99.90;;;;;;4822720;29;20065;-85
2022/03/07 06:16:13;;;;;;;15.80;8.63;;;-0.60;99.90;;;;;;4822587;29;20058;-85
2022/03/07 06:18:39;;;;;;;14.65;8.93;;;-0.70;99.90;;;;;;4819458;29;20054;-85
2022/03/07 06:21:05;;;;;;;13.73;9.35;;;-0.80;99.90;;;;;;4837239;29;20115;-85
2022/03/07 06:23:32;;;;;;;15.45;9.70;;;-0.90;99.90;;;;;;4822511;29;20054;-85
2022/03/07 06:25:58;;;;;;;20.58;9.90;;;-0.90;99.90;;;;;;4813880;29;20370;-85
2022/03/07 06:28:23;;;;;;;15.65;9.82;;;-0.90;99.90;;;;;;4806728;29;20062;-85
2022/03/07 06:30:49;;;;;;;19.23;9.95;;;0.30;99.90;;;;;;4822241;29;20184;-85
2022/03/07 06:33:15;;;;;;;15.50;9.27;;;-0.90;99.90;;;;;;4822189;29;20114;-86
2022/03/07 06:35:42;;;;;;;17.15;9.77;;;-0.10;99.90;;;;;;4822273;29;20144;-85
2022/03/07 06:38:08;;;;;;;14.50;9.23;;;-0.90;99.90;;;;;;4819092;29;20103;-85
2022/03/07 06:40:34;;;;;;;15.70;9.45;;;-0.80;99.90;;;;;;4822235;29;20058;-85
2022/03/07 06:43:02;;;;;;;17.48;9.45;;;-0.80;99.90;;;;;;4806937;29;20140;-85
2022/03/07 06:45:30;;;;;;;16.65;9.38;;;-0.80;99.90;;;;;;4822125;29;20061;-85
2022/03/07 06:47:57;;;;;;;13.98;8.68;;;0.20;99.90;;;;;;4818639;29;20086;-86
2022/03/07 06:50:23;;;;;;;13.98;8.93;;;-0.60;99.90;;;;;;4836773;29;20042;-84
2022/03/07 06:52:49;;;;;;;15.45;8.95;;;-0.60;99.90;;;;;;4822148;29;20082;-85
2022/03/07 06:55:15;;;;;;;14.93;9.25;;;-0.10;99.90;;;;;;4805712;29;20070;-85
2022/03/07 06:57:42;;;;;;;13.32;8.15;;;0.30;99.90;;;;;;4807103;29;20421;-85
2022/03/07 07:00:13;;;;;;;15.25;8.68;;;0.20;99.90;;;;;;4822122;29;20480;-85
2022/03/07 07:02:39;;;;;;;14.82;9.07;;;-0.50;99.90;;;;;;4803906;29;20054;-85
2022/03/07 07:05:06;;;;;;;14.07;8.82;;;-0.20;99.90;;;;;;4821494;29;20085;-86
2022/03/07 07:07:32;;;;;;;15.27;8.95;;;-0.40;99.90;;;;;;4828609;29;20050;-85
2022/03/07 07:09:58;;;;;;;12.95;8.98;;;-0.30;99.90;;;;;;4808748;29;20081;-90
2022/03/07 07:12:24;;;;;;;14.43;8.25;;;1.00;99.90;;;;;;4822839;29;20109;-87
2022/03/07 07:14:49;;;;;;;16.45;8.60;;;-0.20;99.90;;;;;;4822094;29;20069;-88
2022/03/07 07:17:16;;;;;;;15.35;8.77;;;-0.10;99.90;;;;;;4822299;29;20058;-88
2022/03/07 07:19:42;;;;;;;14.10;8.52;;;0.00;99.90;;;;;;4822336;29;20103;-88
2022/03/07 07:22:08;;;;;;;13.05;8.57;;;0.00;99.90;;;;;;4821960;29;20050;-89
2022/03/07 07:24:34;;;;;;;14.60;8.77;;;1.00;99.90;;;;;;4821402;29;20057;-88
2022/03/07 07:27:00;;;;;;;13.00;8.32;;;0.20;99.90;;;;;;4821253;29;20054;-88
2022/03/07 07:29:26;;;;;;;15.68;9.30;;;0.20;99.90;;;;;;4836942;29;20094;-89
2022/03/07 07:31:52;;;;;;;16.83;9.90;;;0.30;99.90;;;;;;4837305;29;20106;-89
2022/03/07 07:34:19;;;;;;;14.32;9.75;;;0.40;99.90;;;;;;4821845;29;20054;-90
2022/03/07 07:36:44;;;;;;;16.60;9.50;;;0.50;99.90;;;;;;4821102;29;20054;-90
2022/03/07 07:39:10;;;;;;;17.35;9.77;;;0.80;99.90;;;;;;4822364;29;20621;-91
2022/03/07 07:41:36;;;;;;;17.95;9.85;;;0.60;99.90;;;;;;4819673;29;20119;-88
2022/03/07 07:44:02;;;;;;;21.38;11.43;;;1.70;99.90;;;;;;4818334;29;20136;-89
2022/03/07 07:46:28;;;;;;;18.80;11.65;;;0.80;99.90;;;;;;4806403;29;20054;-86
2022/03/07 07:48:54;;;;;;;17.88;10.43;;;0.90;99.90;;;;;;4821449;29;20111;-86
2022/03/07 07:51:20;;;;;;;22.23;11.93;;;1.00;99.90;;;;;;4806587;29;20066;-85
2022/03/07 07:53:46;;;;;;;16.58;9.57;;;1.60;99.90;;;;;;4821517;29;20087;-86
2022/03/07 07:56:12;;;;;;;21.10;10.93;;;1.60;99.90;;;;;;4820502;29;20404;-86
2022/03/07 07:58:39;;;;;;;15.63;9.43;;;1.30;99.90;;;;;;4798319;29;20054;-86
2022/03/07 08:01:04;;;;;;;15.63;9.63;;;1.30;99.90;;;;;;4802083;29;20072;-86
2022/03/07 08:03:30;;;;;;;16.00;9.60;;;1.60;99.90;;;;;;4810077;29;20050;-85
2022/03/07 08:05:57;;;;;;;14.25;8.82;;;1.30;99.90;;;;;;4821513;29;20492;-85
2022/03/07 08:08:22;;;;;;;14.88;9.15;;;1.40;99.90;;;;;;4821088;29;20050;-84
2022/03/07 08:10:48;;;;;;;17.48;9.68;;;1.40;99.90;;;;;;4792131;29;20225;-85
2022/03/07 08:13:14;;;;;;;15.73;9.40;;;2.10;99.90;;;;;;4821470;29;20065;-85
2022/03/07 08:15:40;;;;;;;15.82;9.73;;;1.60;99.90;;;;;;4818557;29;20059;-85
2022/03/07 08:18:07;;;;;;;15.05;8.88;;;1.70;99.90;;;;;;4838730;29;20054;-86
2022/03/07 08:20:33;;;;;;;15.27;8.38;;;2.30;99.90;;;;;;4824330;29;20051;-86
2022/03/07 08:22:58;;;;;;;15.10;9.32;;;1.90;99.90;;;;;;4809324;29;20385;-86
2022/03/07 08:25:24;;;;;;;14.07;8.77;;;2.00;99.90;;;;;;4817331;29;20062;-84
2022/03/07 08:27:51;;;;;;;15.35;8.55;;;2.10;99.90;;;;;;4820380;29;20785;-85
2022/03/07 08:30:19;;;;;;;14.90;9.10;;;2.20;99.90;;;;;;4824078;29;20073;-87
2022/03/07 08:32:45;;;;;;;15.23;9.25;;;2.80;99.90;;;;;;4803014;29;20123;-87
2022/03/07 08:35:12;;;;;;;15.55;8.65;;;2.40;99.90;;;;;;4807142;29;20055;-88
2022/03/07 08:37:38;;;;;;;14.93;9.35;;;2.50;99.90;;;;;;4819258;29;20058;-90
2022/03/07 08:40:06;;;;;;;15.55;8.25;;;2.70;99.90;;;;;;4806217;29;20093;-90
2022/03/07 08:42:32;;;;;;;14.30;7.97;;;2.80;99.90;;;;;;4817546;29;20046;-92
2022/03/07 08:44:58;;;;;;;14.35;8.77;;;2.90;99.90;;;;;;4810457;29;20050;-92
2022/03/07 08:47:23;;;;;;;17.50;8.82;;;3.50;99.90;;;;;;4831168;29;20064;-91
2022/03/07 08:49:49;;;;;;;14.00;8.10;;;3.70;99.90;;;;;;4813352;29;20051;-92
2022/03/07 08:52:15;;;;;;;13.95;8.02;;;3.80;99.90;;;;;;4821308;29;20077;-86
2022/03/07 08:54:47;;;;;;;14.57;6.72;;;3.60;99.90;;;;;;4830415;29;20054;-91
2022/03/07 08:57:14;;;;;;;10.18;6.22;;;4.50;99.90;;;;;;4831364;29;20047;-90
2022/03/07 08:59:40;;;;;;;14.20;6.70;;;4.30;99.90;;;;;;4833769;29;20091;-92
2022/03/07 09:02:06;;;;;;;12.77;6.65;;;4.00;99.90;;;;;;4811660;29;20054;-92
2022/03/07 09:04:32;;;;;;;12.73;6.38;;;4.20;99.90;;;;;;4807477;29;20054;-93
2022/03/07 09:06:58;;;;;;;12.95;6.28;;;5.10;99.90;;;;;;4821812;29;20134;-92
2022/03/07 09:09:23;;;;;;;10.60;5.75;;;4.50;99.90;;;;;;4811333;29;20429;-92
2022/03/07 09:11:49;;;;;;;9.23;4.50;;;4.60;99.90;;;;;;4823843;29;20499;-89
2022/03/07 09:14:16;;;;;;;11.40;5.15;;;4.80;99.90;;;;;;4823802;29;20500;-89
2022/03/07 09:16:42;;;;;;;9.40;4.68;;;4.90;99.90;;;;;;4823503;29;20393;-89
2022/03/07 09:19:08;;;;;;;8.43;4.15;;;5.00;99.90;;;;;;4811175;29;20053;-89
2022/03/07 09:21:34;;;;;;;8.23;4.40;;;5.20;99.90;;;;;;4823672;29;20051;-91
2022/03/07 09:23:59;;;;;;;8.77;4.40;;;5.60;99.90;;;;;;4828007;29;20598;-89
2022/03/07 09:26:25;;;;;;;8.88;4.38;;;5.50;99.90;;;;;;4832914;29;20058;-88
2022/03/07 09:28:51;;;;;;;8.82;4.93;;;5.80;99.90;;;;;;4806665;29;20061;-92
2022/03/07 09:31:17;;;;;;;8.75;4.47;;;5.70;99.90;;;;;;4822826;29;20133;-91
2022/03/07 09:33:43;;;;;;;8.68;3.80;;;5.90;99.90;;;;;;4808389;29;20129;-89
2022/03/07 09:36:09;;;;;;;4.95;2.60;;;5.90;99.90;;;;;;4799980;29;20065;-91
2022/03/07 09:38:36;;;;;;;3.75;1.67;;;6.10;99.90;;;;;;4805212;29;20050;-91
2022/03/07 09:41:03;;;;;;;6.18;2.40;;;6.50;99.90;;;;;;4818140;29;20768;-89
2022/03/07 09:43:29;;;;;;;7.55;3.40;;;6.40;99.90;;;;;;4809760;29;20149;-87
2022/03/07 09:45:55;;;;;;;6.63;3.55;;;6.50;99.90;;;;;;4807732;29;20113;-89
2022/03/07 09:48:25;;;;;;;7.35;3.70;;;6.60;99.90;;;;;;4834205;29;20059;-87
2022/03/07 09:50:52;;;;;;;8.85;4.32;;;6.70;99.90;;;;;;4805385;29;20050;-90
2022/03/07 09:53:19;;;;;;;5.95;3.80;;;7.00;99.90;;;;;;4822889;29;20085;-88
2022/03/07 09:55:45;;;;;;;4.93;2.13;;;7.00;99.90;;;;;;4819035;29;20565;-89
2022/03/07 09:58:11;;;;;;;5.25;2.80;;;7.10;99.90;;;;;;4812119;29;20141;-89
2022/03/07 10:00:41;;;;;;;7.05;3.33;;;7.10;99.90;;;;;;4803737;29;20149;-88
2022/03/07 10:03:10;;;;;;;5.88;3.10;;;7.20;99.90;;;;;;4805327;29;20062;-90
2022/03/07 10:05:38;;;;;;;4.82;2.55;;;7.40;99.90;;;;;;4800649;29;20090;-91
2022/03/07 10:08:05;;;;;;;7.28;3.53;;;7.60;99.90;;;;;;4822139;29;20265;-89
2022/03/07 10:10:38;;;;;;;5.07;2.85;;;7.80;99.90;;;;;;4822257;29;20065;-90
2022/03/07 10:13:10;;;;;;;7.97;3.60;;;7.80;99.90;;;;;;4804634;29;20146;-89
2022/03/07 10:15:38;;;;;;;6.72;3.40;;;7.80;99.90;;;;;;4804375;29;20054;-89
2022/03/07 10:18:05;;;;;;;4.25;3.00;;;8.10;99.90;;;;;;4803749;29;20050;-89
2022/03/07 10:20:31;;;;;;;7.50;3.35;;;8.20;99.90;;;;;;4811126;29;20050;-88
2022/03/07 10:23:00;;;;;;;6.38;2.70;;;8.30;99.90;;;;;;4834639;29;20427;-89
2022/03/07 10:25:31;;;;;;;6.03;3.13;;;8.50;99.90;;;;;;4810884;29;20047;-89
2022/03/07 10:28:00;;;;;;;6.35;3.90;;;8.60;99.90;;;;;;4803240;29;20130;-87
2022/03/07 10:30:31;;;;;;;7.72;4.10;;;8.80;99.90;;;;;;4808794;29;20523;-87
2022/03/07 10:33:00;;;;;;;8.45;4.05;;;9.20;99.90;;;;;;4803850;29;20055;-87
2022/03/07 10:35:28;;;;;;;6.55;4.50;;;9.50;99.90;;;;;;4816336;29;20062;-88
2022/03/07 10:38:05;;;;;;;7.30;4.10;;;9.60;99.90;;;;;;4813973;29;20115;-90
2022/03/07 10:40:33;;;;;;;7.07;4.45;;;9.80;99.90;;;;;;4816017;29;20051;-90
2022/03/07 10:43:04;;;;;;;7.22;4.57;;;10.00;99.90;;;;;;4811690;29;20062;-90
2022/03/07 10:45:31;;;;;;;6.90;4.63;;;10.00;99.90;;;;;;4803454;29;20382;-87
2022/03/07 10:48:04;;;;;;;8.35;4.60;;;9.80;99.90;;;;;;4831611;29;20449;-88
2022/03/07 10:50:30;;;;;;;6.57;4.25;;;9.90;99.90;;;;;;4812719;29;20137;-88
2022/03/07 10:53:05;;;;;;;9.30;4.47;;;10.10;99.90;;;;;;4817946;29;20059;-90
2022/03/07 10:55:32;;;;;;;6.47;4.20;;;10.40;99.90;;;;;;4829565;29;20520;-90
2022/03/07 10:58:14;;;;;;;9.88;4.35;;;10.40;99.90;;;;;;4818565;29;20104;-88
2022/03/07 11:00:52;;;;;;;7.28;4.72;;;10.60;99.90;;;;;;4803994;29;20087;-86
2022/03/07 11:03:23;;;;;;;7.25;4.20;;;10.70;99.90;;;;;;4806203;29;20046;-87
2022/03/07 11:05:50;;;;;;;7.45;4.45;;;10.80;99.90;;;;;;4818265;29;20051;-86
2022/03/07 11:08:17;;;;;;;7.22;4.40;;;10.80;99.90;;;;;;4820441;29;20860;-90
2022/03/07 11:10:46;;;;;;;9.23;4.55;;;10.80;99.90;;;;;;4803615;29;20115;-91
2022/03/07 11:13:14;;;;;;;8.43;4.80;;;10.90;99.90;;;;;;4807134;29;20051;-87
2022/03/07 11:15:42;;;;;;;5.30;4.03;;;10.80;99.90;;;;;;4803854;29;20405;-87
2022/03/07 11:18:13;;;;;;;7.53;4.00;;;10.70;99.90;;;;;;4808208;29;20058;-88
2022/03/07 11:20:44;;;;;;;5.45;3.33;;;10.80;99.90;;;;;;4833102;29;20472;-86
2022/03/07 11:23:11;;;;;;;5.85;3.60;;;10.80;99.90;;;;;;4814376;29;20051;-87
2022/03/07 11:25:39;;;;;;;5.93;3.22;;;10.50;99.90;;;;;;4802659;29;20137;-90
2022/03/07 11:28:06;;;;;;;5.93;3.53;;;9.90;99.90;;;;;;4836301;29;20138;-87
2022/03/07 11:30:39;;;;;;;6.38;3.70;;;9.80;99.90;;;;;;4821685;29;20061;-90
2022/03/07 11:33:14;;;;;;;5.88;3.70;;;9.90;99.90;;;;;;4821169;29;20060;-89
2022/03/07 11:35:54;;;;;;;7.68;3.40;;;9.60;99.90;;;;;;4819343;29;20413;-88
2022/03/07 11:38:28;;;;;;;5.10;3.38;;;9.20;99.90;;;;;;4803689;29;20082;-90
2022/03/07 11:41:13;;;;;;;7.45;3.53;;;9.10;99.90;;;;;;4802456;29;20529;-89
2022/03/07 11:43:49;;;;;;;6.60;3.63;;;9.00;99.90;;;;;;4803257;29;20063;-89
2022/03/07 11:46:25;;;;;;;5.45;3.80;;;9.00;99.90;;;;;;4833629;29;20055;-89
2022/03/07 11:48:51;;;;;;;7.15;3.90;;;9.00;99.90;;;;;;4806521;29;20058;-89
2022/03/07 11:51:39;;;;;;;4.55;3.42;;;9.10;99.90;;;;;;4821794;29;20053;-90
2022/03/07 11:54:06;;;;;;;5.47;3.55;;;9.20;99.90;;;;;;4836756;29;20066;-87
2022/03/07 11:56:38;;;;;;;6.05;3.30;;;9.50;99.90;;;;;;4836551;29;20092;-90
2022/03/07 11:59:06;;;;;;;5.55;3.50;;;9.60;99.90;;;;;;4823259;29;20103;-89
2022/03/07 12:01:32;;;;;;;6.30;3.22;;;9.70;99.90;;;;;;4814854;29;20042;-89
2022/03/07 12:04:19;;;;;;;5.47;3.13;;;9.90;99.90;;;;;;4807322;29;20520;-89
2022/03/07 12:06:50;;;;;;;6.13;3.17;;;10.00;99.90;;;;;;4816408;29;20055;-90
2022/03/07 12:09:32;;;;;;;6.72;3.63;;;10.10;99.90;;;;;;4806614;29;20058;-86
2022/03/07 12:12:10;;;;;;;6.32;3.45;;;10.30;99.90;;;;;;4809435;29;20050;-91
2022/03/07 12:14:45;;;;;;;5.00;3.15;;;10.40;99.90;;;;;;4823270;29;20066;-88
2022/03/07 12:17:14;;;;;;;6.05;3.38;;;10.30;99.90;;;;;;4813569;29;20055;-86
2022/03/07 12:19:40;;;;;;;6.05;3.85;;;10.30;99.90;;;;;;4820877;29;20138;-85
2022/03/07 12:22:14;;;;;;;4.00;2.92;;;10.20;99.90;;;;;;4807099;29;20047;-90
2022/03/07 12:24:40;;;;;;;4.82;3.05;;;10.20;99.90;;;;;;4805215;29;20137;-87
2022/03/07 12:27:07;;;;;;;5.25;2.80;;;10.20;99.90;;;;;;4805482;29;20046;-86
2022/03/07 12:29:33;;;;;;;4.00;2.85;;;10.60;99.90;;;;;;4810677;29;20121;-85
2022/03/07 12:32:03;;;;;;;4.15;2.80;;;11.20;99.90;;;;;;4817746;29;20500;-85
2022/03/07 12:34:39;;;;;;;4.10;2.88;;;11.50;99.90;;;;;;4812022;29;20050;-86
2022/03/07 12:37:13;;;;;;;6.55;3.28;;;12.10;99.90;;;;;;4805735;29;20508;-88
2022/03/07 12:39:48;;;;;;;6.50;3.30;;;12.70;99.90;;;;;;4810811;29;20419;-86
2022/03/07 12:42:15;;;;;;;6.53;3.17;;;13.30;99.90;;;;;;4813580;29;20560;-85
2022/03/07 12:44:41;;;;;;;4.13;2.97;;;13.70;99.90;;;;;;4805950;29;20054;-86
2022/03/07 12:47:08;;;;;;;4.13;2.90;;;14.00;99.90;;;;;;4805572;29;20059;-88